Terminal Aerodrome Forecast
Issued by NWS

Home | Current Version | Previous Version | Text Only | Print | Product List | Glossary On
Versions: 1 2 3 4 5 6 7 8 9 10 11 12 13 14 15 16 17 18 19
000
FTUS46 KEKA 271720
TAFCEC
TAF
KCEC 271720Z 2718/2818 36013G20KT P6SM SKC
     FM271900 34018G26KT P6SM SKC
     FM280200 34010G15KT P6SM SKC
     FM280600 01009KT P6SM FEW015
     FM281600 36012KT P6SM SKC=

USA.gov is the U.S. government's official web portal to all federal, state and local government web resources and services.